Time;durP1;ratioP1;P1;durP2;ratioP2;P2;SDS_P1;SDS_P2;PMS_P1;PMS_P2;Temp;Humidity;BMP_temperature;BMP_pressure;BME280_temperature;BME280_humidity;BME280_pressure;Samples;Min_cycle;Max_cycle;Signal;HPM_P1;HPM_P2
2023/08/24 00:01:20;;;;;;;5.82;3.42;;;20.00;99.90;;;;;;5053339;28;20194;-53
2023/08/24 00:03:46;;;;;;;5.85;3.45;;;20.20;99.90;;;;;;5052254;28;20179;-50
2023/08/24 00:06:12;;;;;;;6.15;3.63;;;20.10;99.90;;;;;;5053050;28;20324;-51
2023/08/24 00:08:38;;;;;;;6.55;3.67;;;20.10;99.90;;;;;;5052992;28;20213;-52
2023/08/24 00:11:05;;;;;;;7.28;4.10;;;20.10;99.90;;;;;;5053062;28;20175;-53
2023/08/24 00:13:31;;;;;;;5.00;3.63;;;20.20;99.90;;;;;;5052866;28;20171;-52
2023/08/24 00:15:56;;;;;;;5.32;4.05;;;20.20;99.90;;;;;;5052778;28;20178;-54
2023/08/24 00:18:22;;;;;;;5.82;3.90;;;20.10;99.90;;;;;;5053380;28;20202;-51
2023/08/24 00:20:51;;;;;;;6.22;4.28;;;20.00;99.90;;;;;;5053127;28;20711;-52
2023/08/24 00:23:18;;;;;;;7.18;4.18;;;20.10;99.90;;;;;;5052877;28;20167;-52
2023/08/24 00:25:44;;;;;;;7.32;4.28;;;20.10;99.90;;;;;;5053139;28;20529;-52
2023/08/24 00:28:10;;;;;;;6.22;4.53;;;20.10;99.90;;;;;;5052760;28;20629;-53
2023/08/24 00:30:36;;;;;;;6.45;4.45;;;20.00;99.90;;;;;;5052995;28;20199;-52
2023/08/24 00:33:02;;;;;;;6.20;4.20;;;20.10;99.90;;;;;;5052895;28;20247;-53
2023/08/24 00:35:28;;;;;;;7.03;4.40;;;20.20;99.90;;;;;;5053069;28;20267;-53
2023/08/24 00:37:53;;;;;;;6.35;4.70;;;20.10;99.90;;;;;;5052655;28;20256;-53
2023/08/24 00:40:19;;;;;;;5.35;4.38;;;20.10;99.90;;;;;;5056147;28;20229;-49
2023/08/24 00:42:48;;;;;;;6.30;4.18;;;20.10;99.90;;;;;;5056385;28;20192;-53
2023/08/24 00:45:14;;;;;;;7.00;4.30;;;20.20;99.90;;;;;;5056483;28;20595;-53
2023/08/24 00:47:44;;;;;;;5.97;4.50;;;20.10;99.90;;;;;;5056465;28;20202;-52
2023/08/24 00:50:10;;;;;;;5.72;4.40;;;20.10;99.90;;;;;;5056545;28;20237;-53
2023/08/24 00:52:39;;;;;;;6.10;3.78;;;20.10;99.90;;;;;;5056506;28;20172;-52
2023/08/24 00:55:06;;;;;;;8.80;4.65;;;20.20;99.90;;;;;;5056336;28;20175;-52
2023/08/24 00:57:32;;;;;;;5.38;4.22;;;20.10;99.90;;;;;;5056160;28;20215;-52
2023/08/24 01:00:01;;;;;;;6.25;4.63;;;20.00;99.90;;;;;;5056227;28;20718;-52
2023/08/24 01:02:27;;;;;;;5.75;4.40;;;19.90;99.90;;;;;;5056358;28;20167;-53
2023/08/24 01:04:53;;;;;;;6.82;3.85;;;20.10;99.90;;;;;;5056224;28;20176;-49
2023/08/24 01:07:20;;;;;;;5.90;4.20;;;20.10;99.90;;;;;;5056188;28;20203;-51
2023/08/24 01:09:47;;;;;;;6.72;4.25;;;20.20;99.90;;;;;;5055997;28;20258;-53
2023/08/24 01:12:43;;;;;;;4.90;4.00;;;20.10;99.90;;;;;;5056133;28;20183;-53
2023/08/24 01:15:37;;;;;;;7.07;4.75;;;20.20;99.90;;;;;;5055968;28;20228;-50
2023/08/24 01:18:08;;;;;;;5.25;3.92;;;20.20;99.90;;;;;;5055963;28;20172;-49
2023/08/24 01:20:36;;;;;;;7.00;4.47;;;20.20;99.90;;;;;;5056239;28;20242;-51
2023/08/24 01:23:09;;;;;;;6.70;4.40;;;20.10;99.90;;;;;;5055865;28;20175;-51
2023/08/24 01:25:39;;;;;;;5.72;4.13;;;20.20;99.90;;;;;;5055929;28;20230;-50
2023/08/24 01:28:08;;;;;;;8.25;4.53;;;20.10;99.90;;;;;;5055601;28;20199;-52
2023/08/24 01:30:35;;;;;;;7.50;4.43;;;20.10;99.90;;;;;;5055625;28;20167;-52
2023/08/24 01:33:04;;;;;;;8.38;4.35;;;20.20;99.90;;;;;;5055485;28;20176;-51
2023/08/24 01:35:30;;;;;;;6.55;4.03;;;20.20;99.90;;;;;;5055688;28;20175;-52
2023/08/24 01:37:56;;;;;;;5.97;3.80;;;20.20;99.90;;;;;;5055530;28;20175;-52
2023/08/24 01:40:33;;;;;;;6.00;4.65;;;20.30;99.90;;;;;;5055353;28;20189;-53
2023/08/24 01:43:03;;;;;;;6.13;4.53;;;20.20;99.90;;;;;;5055563;28;20639;-52
2023/08/24 01:45:31;;;;;;;8.27;4.60;;;20.20;99.90;;;;;;5055209;28;20230;-49
2023/08/24 01:47:59;;;;;;;6.38;4.80;;;20.20;99.90;;;;;;5055329;28;20746;-53
2023/08/24 01:50:25;;;;;;;8.05;5.05;;;20.30;99.90;;;;;;5054342;28;20171;-49
2023/08/24 01:52:51;;;;;;;6.18;4.70;;;20.30;99.90;;;;;;5055183;28;20258;-52
2023/08/24 01:55:20;;;;;;;6.88;4.90;;;20.20;99.90;;;;;;5055196;28;20202;-50
2023/08/24 01:57:46;;;;;;;8.32;4.90;;;20.20;99.90;;;;;;5055154;28;20644;-52
2023/08/24 02:00:12;;;;;;;7.32;4.72;;;20.10;99.90;;;;;;5055025;28;20186;-52
2023/08/24 02:02:37;;;;;;;8.23;5.10;;;20.00;99.90;;;;;;5054991;28;20250;-51
2023/08/24 02:05:04;;;;;;;8.88;5.45;;;19.90;99.90;;;;;;5055170;28;20266;-50
2023/08/24 02:07:30;;;;;;;5.90;5.18;;;19.70;99.90;;;;;;5054880;28;20294;-49
2023/08/24 02:09:55;;;;;;;6.15;5.30;;;19.70;99.90;;;;;;5055052;28;20600;-50
2023/08/24 02:12:21;;;;;;;9.40;6.47;;;19.60;99.90;;;;;;5054841;28;20217;-50
2023/08/24 02:14:47;;;;;;;9.45;6.13;;;19.40;99.90;;;;;;5054788;28;20207;-52
2023/08/24 02:17:13;;;;;;;7.78;6.20;;;19.50;99.90;;;;;;5054946;28;20206;-50
2023/08/24 02:19:41;;;;;;;6.95;5.53;;;19.40;99.90;;;;;;5054788;28;20241;-52
2023/08/24 02:22:07;;;;;;;6.78;5.85;;;19.40;99.90;;;;;;5054537;28;20636;-52
2023/08/24 02:24:33;;;;;;;8.25;6.55;;;19.40;99.90;;;;;;5054338;28;20186;-53
2023/08/24 02:26:59;;;;;;;8.82;6.50;;;19.40;99.90;;;;;;5054409;28;20175;-52
2023/08/24 02:29:25;;;;;;;8.20;6.28;;;19.50;99.90;;;;;;5054606;28;20175;-52
2023/08/24 02:31:50;;;;;;;9.43;6.68;;;19.40;99.90;;;;;;5054666;28;20629;-49
2023/08/24 02:34:16;;;;;;;8.02;6.90;;;19.50;99.90;;;;;;5054656;28;20648;-52
2023/08/24 02:36:42;;;;;;;7.53;6.60;;;19.40;99.90;;;;;;5054714;28;20176;-49
2023/08/24 02:39:08;;;;;;;7.97;6.93;;;19.40;99.90;;;;;;5054401;28;20175;-53
2023/08/24 02:41:34;;;;;;;9.82;7.57;;;19.30;99.90;;;;;;5054412;28;20206;-49
2023/08/24 02:44:00;;;;;;;10.43;7.28;;;19.30;99.90;;;;;;5054155;28;20175;-50
2023/08/24 02:46:26;;;;;;;8.77;7.50;;;19.30;99.90;;;;;;5054380;28;20186;-52
2023/08/24 02:48:51;;;;;;;7.90;7.10;;;19.30;99.90;;;;;;5052885;28;20207;-51
2023/08/24 02:51:17;;;;;;;8.98;7.68;;;19.30;99.90;;;;;;5054172;28;20175;-51
2023/08/24 02:53:43;;;;;;;11.52;7.47;;;19.40;99.90;;;;;;5054069;28;20545;-51
2023/08/24 02:56:08;;;;;;;8.90;7.78;;;19.40;99.90;;;;;;5053999;28;20175;-52
2023/08/24 02:58:34;;;;;;;10.13;7.45;;;19.40;99.90;;;;;;5053819;28;20544;-51
2023/08/24 03:01:07;;;;;;;13.52;7.68;;;19.50;99.90;;;;;;5054087;28;20183;-52
2023/08/24 03:03:33;;;;;;;9.48;7.22;;;19.50;99.90;;;;;;5053770;28;20528;-53
2023/08/24 03:06:04;;;;;;;10.90;8.13;;;19.40;99.90;;;;;;5053855;28;20171;-53
2023/08/24 03:08:32;;;;;;;10.18;8.00;;;19.50;99.90;;;;;;5053724;28;20215;-51
2023/08/24 03:10:58;;;;;;;9.98;7.90;;;19.30;99.90;;;;;;5053656;28;20168;-53
2023/08/24 03:13:24;;;;;;;12.20;8.23;;;19.20;99.90;;;;;;5053910;28;20171;-49
2023/08/24 03:15:51;;;;;;;10.23;8.00;;;19.20;99.90;;;;;;5053813;28;20647;-53
2023/08/24 03:18:18;;;;;;;11.48;8.50;;;19.20;99.90;;;;;;5053688;28;20175;-51
2023/08/24 03:20:45;;;;;;;14.15;8.70;;;19.10;99.90;;;;;;5053727;28;20219;-53
2023/08/24 03:23:11;;;;;;;10.18;8.35;;;19.10;99.90;;;;;;5053568;28;20183;-51
2023/08/24 03:25:38;;;;;;;10.75;7.82;;;19.00;99.90;;;;;;5053484;28;20536;-53
2023/08/24 03:28:04;;;;;;;9.00;8.07;;;19.10;99.90;;;;;;5053836;28;20223;-50
2023/08/24 03:30:30;;;;;;;9.23;7.85;;;19.00;99.90;;;;;;5053374;28;20640;-49
2023/08/24 03:32:56;;;;;;;10.20;8.02;;;19.00;99.90;;;;;;5053267;28;20171;-54
2023/08/24 03:35:22;;;;;;;10.38;8.25;;;18.90;99.90;;;;;;5053449;28;20175;-53
2023/08/24 03:37:47;;;;;;;10.90;8.00;;;18.90;99.90;;;;;;5053398;28;20640;-49
2023/08/24 03:40:13;;;;;;;9.05;8.00;;;19.00;99.90;;;;;;5053275;28;20186;-52
2023/08/24 03:42:39;;;;;;;10.43;8.27;;;19.00;99.90;;;;;;5053409;28;20175;-52
2023/08/24 03:45:05;;;;;;;11.25;8.00;;;18.90;99.90;;;;;;5053408;28;20297;-51
2023/08/24 03:47:31;;;;;;;8.40;7.50;;;18.90;99.90;;;;;;5053097;28;20210;-53
2023/08/24 03:49:57;;;;;;;7.68;6.97;;;18.90;99.90;;;;;;5053082;28;20532;-53
2023/08/24 03:52:22;;;;;;;10.02;7.80;;;18.90;99.90;;;;;;5053226;28;20176;-49
2023/08/24 03:54:48;;;;;;;9.65;8.25;;;18.90;99.90;;;;;;5053049;28;20170;-50
2023/08/24 03:57:15;;;;;;;9.05;7.72;;;18.70;99.90;;;;;;5053284;28;20182;-52
2023/08/24 03:59:41;;;;;;;8.57;7.75;;;18.70;99.90;;;;;;5053145;28;20179;-51
2023/08/24 04:02:07;;;;;;;9.70;7.75;;;18.70;99.90;;;;;;5053005;28;20198;-47
2023/08/24 04:04:33;;;;;;;8.32;7.25;;;18.80;99.90;;;;;;5053004;28;20175;-52
2023/08/24 04:06:59;;;;;;;8.82;7.40;;;18.80;99.90;;;;;;5052556;28;20205;-51
2023/08/24 04:09:24;;;;;;;11.10;8.27;;;18.80;99.90;;;;;;5052842;28;20229;-53
2023/08/24 04:11:50;;;;;;;8.57;7.28;;;18.80;99.90;;;;;;5052899;28;20175;-53
2023/08/24 04:14:15;;;;;;;9.25;8.35;;;18.70;99.90;;;;;;5054892;28;20232;-50
2023/08/24 04:16:41;;;;;;;10.55;7.72;;;18.70;99.90;;;;;;5057065;28;20532;-52
2023/08/24 04:19:08;;;;;;;8.63;7.70;;;18.70;99.90;;;;;;5056788;28;20242;-51
2023/08/24 04:21:36;;;;;;;9.48;8.05;;;18.70;99.90;;;;;;5057035;28;20190;-53
2023/08/24 04:24:02;;;;;;;9.55;7.53;;;18.70;99.90;;;;;;5056825;28;20497;-53
2023/08/24 04:26:28;;;;;;;9.43;8.15;;;18.80;99.90;;;;;;5057270;28;20244;-51
2023/08/24 04:28:53;;;;;;;9.35;8.07;;;18.80;99.90;;;;;;5056678;28;20233;-52
2023/08/24 04:31:19;;;;;;;8.63;7.60;;;18.80;99.90;;;;;;5056885;28;20262;-53
2023/08/24 04:33:45;;;;;;;8.38;7.20;;;18.70;99.90;;;;;;5056837;28;20164;-50
2023/08/24 04:36:11;;;;;;;9.10;7.57;;;18.70;99.90;;;;;;5056671;28;20175;-52
2023/08/24 04:38:36;;;;;;;8.57;7.55;;;18.60;99.90;;;;;;5056542;28;20179;-53
2023/08/24 04:41:07;;;;;;;9.68;8.70;;;18.60;99.90;;;;;;5055566;28;20172;-52
2023/08/24 04:43:33;;;;;;;9.63;8.57;;;18.60;99.90;;;;;;5056617;28;20597;-52
2023/08/24 04:45:58;;;;;;;8.82;7.93;;;18.70;99.90;;;;;;5056428;28;20178;-53
2023/08/24 04:48:25;;;;;;;11.45;8.43;;;18.70;99.90;;;;;;5056410;28;20679;-51
2023/08/24 04:50:53;;;;;;;9.85;8.88;;;18.70;99.90;;;;;;5056376;28;20183;-51
2023/08/24 04:53:19;;;;;;;9.40;8.40;;;18.70;99.90;;;;;;5056216;28;20176;-49
2023/08/24 04:55:46;;;;;;;10.90;8.98;;;18.80;99.90;;;;;;5056471;28;20167;-53
2023/08/24 04:58:15;;;;;;;10.15;8.70;;;18.70;99.90;;;;;;5056199;28;20632;-50
2023/08/24 05:00:41;;;;;;;11.02;8.82;;;18.70;99.90;;;;;;5056313;28;20172;-51
2023/08/24 05:03:07;;;;;;;9.63;8.50;;;18.70;99.90;;;;;;5056085;28;20182;-51
2023/08/24 05:05:34;;;;;;;10.70;8.07;;;18.70;99.90;;;;;;5056100;28;20168;-51
2023/08/24 05:08:01;;;;;;;10.23;9.15;;;18.60;99.90;;;;;;5056021;28;20675;-49
2023/08/24 05:10:30;;;;;;;14.05;9.10;;;18.70;99.90;;;;;;5056051;28;20179;-53
2023/08/24 05:12:56;;;;;;;9.60;8.45;;;18.70;99.90;;;;;;5056052;28;20178;-53
2023/08/24 05:15:21;;;;;;;9.93;9.00;;;18.80;99.90;;;;;;5056050;28;20190;-52
2023/08/24 05:17:47;;;;;;;10.95;9.52;;;18.70;99.90;;;;;;5055871;28;20183;-50
2023/08/24 05:20:13;;;;;;;11.32;9.27;;;18.60;99.90;;;;;;5055985;28;20227;-52
2023/08/24 05:22:39;;;;;;;10.70;9.13;;;18.80;99.90;;;;;;5055747;28;20246;-51
2023/08/24 05:25:06;;;;;;;11.73;9.23;;;18.80;99.90;;;;;;5055686;28;20183;-49
2023/08/24 05:27:31;;;;;;;10.73;9.15;;;18.90;99.90;;;;;;5055793;28;20199;-51
2023/08/24 05:29:57;;;;;;;9.50;8.57;;;18.90;99.90;;;;;;5055527;28;20179;-52
2023/08/24 05:32:23;;;;;;;9.43;8.50;;;18.90;99.90;;;;;;5055554;28;20254;-48
2023/08/24 05:34:49;;;;;;;12.38;9.38;;;19.00;99.90;;;;;;5055215;28;20254;-53
2023/08/24 05:37:15;;;;;;;10.27;9.27;;;18.90;99.90;;;;;;5055596;28;20175;-52
2023/08/24 05:39:40;;;;;;;9.73;8.55;;;19.00;99.90;;;;;;5055659;28;20175;-50
2023/08/24 05:42:06;;;;;;;9.85;8.75;;;19.00;99.90;;;;;;5055570;28;20167;-50
2023/08/24 05:44:32;;;;;;;10.88;9.45;;;19.10;99.90;;;;;;5055448;28;20163;-52
2023/08/24 05:46:58;;;;;;;10.02;9.02;;;19.10;99.90;;;;;;5055333;28;20175;-48
2023/08/24 05:49:24;;;;;;;12.07;9.32;;;19.10;99.90;;;;;;5055248;28;20178;-53
2023/08/24 05:51:51;;;;;;;10.45;9.13;;;19.10;99.90;;;;;;5055132;28;20571;-52
2023/08/24 05:54:20;;;;;;;11.45;9.40;;;19.20;99.90;;;;;;5055189;28;20532;-53
2023/08/24 05:56:46;;;;;;;10.60;8.88;;;19.20;99.90;;;;;;5054058;28;20270;-52
2023/08/24 05:59:12;;;;;;;9.20;8.20;;;19.40;99.90;;;;;;5054066;28;20179;-52
2023/08/24 06:01:38;;;;;;;12.52;9.00;;;19.40;99.90;;;;;;5055095;28;20254;-53
2023/08/24 06:04:08;;;;;;;9.30;8.40;;;19.60;99.90;;;;;;5054808;28;20172;-52
2023/08/24 06:06:34;;;;;;;11.93;9.65;;;19.70;99.90;;;;;;5055546;28;20171;-50
2023/08/24 06:08:59;;;;;;;12.95;9.43;;;19.90;99.90;;;;;;5055225;28;20727;-50
2023/08/24 06:11:25;;;;;;;10.18;7.78;;;20.00;99.90;;;;;;5054925;28;20209;-50
2023/08/24 06:13:53;;;;;;;9.27;7.85;;;20.00;99.90;;;;;;5054892;28;20178;-52
2023/08/24 06:16:19;;;;;;;9.18;8.23;;;20.00;99.90;;;;;;5053465;28;20545;-47
2023/08/24 06:18:45;;;;;;;10.50;8.73;;;20.20;99.90;;;;;;5054287;28;20283;-51
2023/08/24 06:21:11;;;;;;;10.82;8.52;;;20.30;99.90;;;;;;5054830;28;20172;-52
2023/08/24 06:23:37;;;;;;;10.70;8.25;;;20.40;99.90;;;;;;5054676;28;20221;-52
2023/08/24 06:26:04;;;;;;;9.43;8.15;;;20.60;99.90;;;;;;5054749;28;20179;-51
2023/08/24 06:28:30;;;;;;;9.73;8.63;;;20.60;99.90;;;;;;5053279;28;20632;-54
2023/08/24 06:30:56;;;;;;;9.65;7.55;;;20.80;99.90;;;;;;5054798;28;20257;-52
2023/08/24 06:33:26;;;;;;;9.57;7.60;;;20.90;99.90;;;;;;5054438;28;20533;-53
2023/08/24 06:35:52;;;;;;;9.60;8.60;;;20.90;99.90;;;;;;5054502;28;20325;-50
2023/08/24 06:38:17;;;;;;;8.55;6.45;;;21.10;99.90;;;;;;5054179;28;20691;-50
2023/08/24 06:40:43;;;;;;;8.35;7.35;;;21.20;99.90;;;;;;5054450;28;20182;-51
2023/08/24 06:43:09;;;;;;;8.00;6.95;;;21.20;99.90;;;;;;5054207;28;20309;-52
2023/08/24 06:45:34;;;;;;;8.82;7.40;;;21.40;99.90;;;;;;5054300;28;20183;-51
2023/08/24 06:48:00;;;;;;;9.45;7.45;;;21.40;99.90;;;;;;5054006;28;20300;-51
2023/08/24 06:50:26;;;;;;;7.72;6.85;;;21.40;99.90;;;;;;5054052;28;20179;-53
2023/08/24 06:52:51;;;;;;;9.57;7.20;;;21.50;99.90;;;;;;5054258;28;20183;-52
2023/08/24 06:55:17;;;;;;;8.00;7.20;;;21.60;99.90;;;;;;5054179;28;20482;-50
2023/08/24 06:57:52;;;;;;;9.45;7.65;;;21.70;99.90;;;;;;5054104;28;20506;-49
2023/08/24 07:00:19;;;;;;;9.20;6.60;;;21.70;99.90;;;;;;5053909;28;20186;-51
2023/08/24 07:02:46;;;;;;;10.27;7.15;;;21.70;99.90;;;;;;5054019;28;20175;-53
2023/08/24 07:05:12;;;;;;;12.50;7.15;;;21.60;99.90;;;;;;5054226;28;20581;-52
2023/08/24 07:07:38;;;;;;;8.32;6.60;;;21.70;99.90;;;;;;5053880;28;20298;-52
2023/08/24 07:10:06;;;;;;;7.95;7.03;;;21.80;99.90;;;;;;5053782;28;20171;-53
2023/08/24 07:12:31;;;;;;;8.57;6.70;;;21.70;99.90;;;;;;5053774;28;20179;-51
2023/08/24 07:14:57;;;;;;;9.32;6.72;;;21.70;99.90;;;;;;5053571;28;20183;-49
2023/08/24 07:17:23;;;;;;;8.80;6.25;;;21.70;99.90;;;;;;5053681;28;20186;-52
2023/08/24 07:19:48;;;;;;;8.48;6.30;;;21.70;99.90;;;;;;5053408;28;20230;-52
2023/08/24 07:22:15;;;;;;;8.30;6.15;;;21.50;99.90;;;;;;5053682;28;20179;-53
2023/08/24 07:24:41;;;;;;;7.13;5.90;;;21.60;99.90;;;;;;5053689;28;20258;-50
2023/08/24 07:27:08;;;;;;;9.13;5.68;;;21.70;99.90;;;;;;5052472;28;20187;-53
2023/08/24 07:29:34;;;;;;;7.18;5.82;;;21.70;99.90;;;;;;5053312;28;20179;-52
2023/08/24 07:31:59;;;;;;;7.07;5.68;;;21.80;99.90;;;;;;5052939;28;20206;-51
2023/08/24 07:34:25;;;;;;;7.60;6.00;;;21.90;99.90;;;;;;5053284;28;20171;-52
2023/08/24 07:36:51;;;;;;;7.68;6.22;;;21.90;99.90;;;;;;5053402;28;20179;-51
2023/08/24 07:39:16;;;;;;;6.82;5.82;;;21.80;99.90;;;;;;5053369;28;20182;-51
2023/08/24 07:41:42;;;;;;;8.05;6.38;;;21.90;99.90;;;;;;5053188;28;20595;-52
2023/08/24 07:44:08;;;;;;;8.95;6.18;;;21.90;99.90;;;;;;5052949;28;20194;-53
2023/08/24 07:46:34;;;;;;;10.60;6.82;;;21.90;99.90;;;;;;5053038;28;20217;-51
2023/08/24 07:49:00;;;;;;;7.85;6.18;;;21.80;99.90;;;;;;5052411;28;20298;-53
2023/08/24 07:51:26;;;;;;;8.20;6.50;;;21.80;99.90;;;;;;5053196;28;20254;-50
2023/08/24 07:53:52;;;;;;;11.30;6.40;;;21.80;99.90;;;;;;5053145;28;20175;-54
2023/08/24 07:56:19;;;;;;;9.10;6.40;;;21.80;99.90;;;;;;5050634;28;20187;-53
2023/08/24 07:58:44;;;;;;;7.35;6.53;;;21.80;99.90;;;;;;5050787;28;20698;-51
2023/08/24 08:01:11;;;;;;;8.70;6.03;;;21.70;99.90;;;;;;5052707;28;20179;-52
2023/08/24 08:03:37;;;;;;;8.48;6.38;;;21.80;99.90;;;;;;5053137;28;20689;-52
2023/08/24 08:06:03;;;;;;;9.18;6.20;;;21.80;99.90;;;;;;5053165;28;20262;-50
2023/08/24 08:08:29;;;;;;;8.85;6.40;;;21.70;99.90;;;;;;5051776;28;20207;-54
2023/08/24 08:10:59;;;;;;;8.95;7.03;;;21.80;99.90;;;;;;5052997;28;20183;-53
2023/08/24 08:13:26;;;;;;;7.22;6.10;;;21.80;99.90;;;;;;5052842;28;20316;-51
2023/08/24 08:15:51;;;;;;;7.40;5.55;;;21.60;99.90;;;;;;5053149;28;20202;-53
2023/08/24 08:18:17;;;;;;;10.23;6.63;;;21.70;99.90;;;;;;5053137;28;20640;-48
2023/08/24 08:20:42;;;;;;;10.23;6.55;;;21.70;99.90;;;;;;5052755;28;20219;-48
2023/08/24 08:23:08;;;;;;;8.70;6.45;;;21.70;99.90;;;;;;5053248;28;20245;-50
2023/08/24 08:25:34;;;;;;;7.78;6.47;;;21.70;99.90;;;;;;5053001;28;20245;-54
2023/08/24 08:27:59;;;;;;;7.35;5.90;;;21.60;99.90;;;;;;5052537;28;20541;-49
2023/08/24 08:30:25;;;;;;;8.55;6.63;;;21.60;99.90;;;;;;5052757;28;20684;-53
2023/08/24 08:32:52;;;;;;;9.23;6.07;;;21.60;99.90;;;;;;5052904;28;20674;-53
2023/08/24 08:35:18;;;;;;;8.75;6.57;;;21.70;99.90;;;;;;5052975;28;20171;-53
2023/08/24 08:37:44;;;;;;;11.95;6.45;;;21.70;99.90;;;;;;5052710;28;20648;-52
2023/08/24 08:40:11;;;;;;;7.82;6.20;;;21.70;99.90;;;;;;5051330;28;20179;-52
2023/08/24 08:42:37;;;;;;;8.77;6.65;;;21.70;99.90;;;;;;5052607;28;20555;-51
2023/08/24 08:45:08;;;;;;;10.45;6.47;;;21.70;99.90;;;;;;5052694;28;20176;-52
2023/08/24 08:47:34;;;;;;;8.35;6.43;;;21.60;99.90;;;;;;5052783;28;20215;-52
2023/08/24 08:50:03;;;;;;;7.35;5.43;;;21.70;99.90;;;;;;5052656;28;20179;-52
2023/08/24 08:52:29;;;;;;;10.10;6.28;;;21.80;99.90;;;;;;5052273;28;20171;-51
2023/08/24 08:54:54;;;;;;;7.05;5.90;;;21.70;99.90;;;;;;5052624;28;20233;-49
2023/08/24 08:57:22;;;;;;;9.52;6.90;;;21.80;99.90;;;;;;5052353;28;20254;-53
2023/08/24 08:59:50;;;;;;;8.52;6.47;;;21.80;99.90;;;;;;5054305;28;20175;-49
2023/08/24 09:02:19;;;;;;;9.07;6.50;;;21.70;99.90;;;;;;5056456;28;20190;-52
2023/08/24 09:04:45;;;;;;;8.93;6.53;;;21.70;99.90;;;;;;5056340;28;20174;-52
2023/08/24 09:07:14;;;;;;;10.68;6.25;;;21.70;99.90;;;;;;5056182;28;20652;-52
2023/08/24 09:09:40;;;;;;;11.35;6.63;;;21.80;99.90;;;;;;5056048;28;20171;-52
2023/08/24 09:12:06;;;;;;;8.43;6.88;;;21.80;99.90;;;;;;5056315;28;20623;-50
2023/08/24 09:14:33;;;;;;;9.23;6.47;;;21.90;99.90;;;;;;5056096;28;20182;-51
2023/08/24 09:16:58;;;;;;;7.78;6.55;;;21.90;99.90;;;;;;5055943;28;20700;-53
2023/08/24 09:19:29;;;;;;;11.13;7.43;;;21.90;99.90;;;;;;5055861;28;20309;-50
2023/08/24 09:21:57;;;;;;;8.60;6.65;;;21.80;99.90;;;;;;5055931;28;20628;-53
2023/08/24 09:24:31;;;;;;;9.02;7.43;;;21.70;99.90;;;;;;5055718;28;20651;-51
2023/08/24 09:26:56;;;;;;;7.65;6.57;;;21.60;99.90;;;;;;5055741;28;20655;-53
2023/08/24 09:29:22;;;;;;;12.45;6.97;;;21.60;99.90;;;;;;5055876;28;20203;-51
2023/08/24 09:31:50;;;;;;;10.48;6.63;;;21.50;99.90;;;;;;5055758;28;20194;-50
2023/08/24 09:34:20;;;;;;;11.35;7.53;;;21.50;99.90;;;;;;5055643;28;20248;-51
2023/08/24 09:36:46;;;;;;;9.65;7.05;;;21.50;99.90;;;;;;5055592;28;20176;-52
2023/08/24 09:39:16;;;;;;;9.63;7.25;;;21.40;99.90;;;;;;5055491;28;20579;-53
2023/08/24 09:41:46;;;;;;;13.45;8.00;;;21.40;99.90;;;;;;5055574;28;20181;-53
2023/08/24 09:44:12;;;;;;;12.20;8.43;;;21.40;99.90;;;;;;5055436;28;20166;-53
2023/08/24 09:46:42;;;;;;;12.50;8.60;;;21.30;99.90;;;;;;5055546;28;20639;-53
2023/08/24 09:49:09;;;;;;;11.88;9.13;;;21.20;99.90;;;;;;5055327;28;20199;-50
2023/08/24 09:51:36;;;;;;;12.95;9.43;;;20.90;99.90;;;;;;5055274;28;20524;-53
2023/08/24 09:54:08;;;;;;;11.60;8.52;;;20.80;99.90;;;;;;5055484;28;20246;-53
2023/08/24 09:56:36;;;;;;;10.20;7.63;;;20.80;99.90;;;;;;5055414;28;20492;-53
2023/08/24 09:59:12;;;;;;;9.23;8.30;;;20.90;99.90;;;;;;5054945;28;20550;-52
2023/08/24 10:01:41;;;;;;;10.52;8.00;;;20.80;99.90;;;;;;5055203;28;20246;-49
2023/08/24 10:04:08;;;;;;;10.13;8.02;;;20.80;99.90;;;;;;5054997;28;20171;-52
2023/08/24 10:06:38;;;;;;;11.70;8.50;;;20.90;99.90;;;;;;5054971;28;20229;-53
2023/08/24 10:09:08;;;;;;;15.00;8.38;;;20.90;99.90;;;;;;5055104;28;20285;-52
2023/08/24 10:11:39;;;;;;;9.95;8.00;;;20.90;99.90;;;;;;5054103;28;20233;-52
2023/08/24 10:14:12;;;;;;;10.70;8.00;;;20.90;99.90;;;;;;5052685;28;20715;-51
2023/08/24 10:16:39;;;;;;;11.48;7.70;;;20.80;99.90;;;;;;5054942;28;20167;-48
2023/08/24 10:19:05;;;;;;;8.98;7.60;;;20.80;99.90;;;;;;5054801;28;20694;-50
2023/08/24 10:21:31;;;;;;;9.90;7.30;;;20.90;99.90;;;;;;5055081;28;20228;-51
2023/08/24 10:23:57;;;;;;;9.98;7.78;;;20.90;99.90;;;;;;5054878;28;20171;-51
2023/08/24 10:26:24;;;;;;;11.55;6.80;;;20.90;99.90;;;;;;5054739;28;20169;-53
2023/08/24 10:28:53;;;;;;;10.35;7.30;;;20.80;99.90;;;;;;5054345;28;20289;-52
2023/08/24 10:31:20;;;;;;;9.23;6.45;;;20.90;99.90;;;;;;5054523;28;20714;-52
2023/08/24 10:33:46;;;;;;;11.15;7.00;;;20.90;99.90;;;;;;5054630;28;20175;-52
2023/08/24 10:36:17;;;;;;;10.48;7.00;;;20.90;99.90;;;;;;5053387;28;20646;-52
2023/08/24 10:38:43;;;;;;;7.65;6.63;;;21.00;99.90;;;;;;5054533;28;20221;-53
2023/08/24 10:41:13;;;;;;;8.98;7.20;;;21.00;99.90;;;;;;5054433;28;20194;-53
2023/08/24 10:43:40;;;;;;;11.13;6.88;;;21.00;99.90;;;;;;5054240;28;20512;-52
2023/08/24 10:46:13;;;;;;;7.97;6.30;;;21.10;99.90;;;;;;5054409;28;20176;-51
2023/08/24 10:48:42;;;;;;;7.70;6.55;;;21.00;99.90;;;;;;5054335;28;20239;-51
2023/08/24 10:51:14;;;;;;;9.65;6.28;;;21.20;99.90;;;;;;5054329;28;20171;-49
2023/08/24 10:54:00;;;;;;;10.13;6.32;;;21.20;99.90;;;;;;5054312;28;20640;-53
2023/08/24 10:56:36;;;;;;;7.95;6.35;;;21.20;99.90;;;;;;5054214;28;20190;-52
2023/08/24 10:59:12;;;;;;;7.13;5.72;;;21.30;99.90;;;;;;5054003;28;20497;-52
2023/08/24 11:01:42;;;;;;;9.43;5.82;;;21.50;99.90;;;;;;5054074;28;20523;-53
2023/08/24 11:04:08;;;;;;;8.68;6.10;;;21.70;99.90;;;;;;5053887;28;20175;-52
2023/08/24 11:06:33;;;;;;;6.22;5.70;;;21.80;99.90;;;;;;5053866;28;20167;-51
2023/08/24 11:09:15;;;;;;;6.10;5.32;;;22.00;99.90;;;;;;5054176;28;20585;-53
2023/08/24 11:11:41;;;;;;;9.38;5.45;;;22.10;99.90;;;;;;5054066;28;20160;-52
2023/08/24 11:14:19;;;;;;;5.95;4.90;;;22.00;99.90;;;;;;5053870;28;20628;-54
2023/08/24 11:16:49;;;;;;;7.20;4.93;;;22.10;99.90;;;;;;5053777;28;20171;-53
2023/08/24 11:19:15;;;;;;;6.28;4.60;;;22.30;99.90;;;;;;5053384;28;20231;-52
2023/08/24 11:21:46;;;;;;;7.05;5.10;;;22.40;99.90;;;;;;5053978;28;20164;-53
2023/08/24 11:24:15;;;;;;;5.80;5.03;;;22.60;99.90;;;;;;5052400;28;20253;-50
2023/08/24 11:26:49;;;;;;;5.95;4.78;;;22.80;99.90;;;;;;5053670;28;20604;-53
2023/08/24 11:29:15;;;;;;;5.63;4.53;;;22.90;99.90;;;;;;5053542;28;20203;-52
2023/08/24 11:31:41;;;;;;;6.88;4.90;;;23.00;99.90;;;;;;5053921;28;20174;-53
2023/08/24 11:34:07;;;;;;;6.47;5.10;;;22.90;99.90;;;;;;5053661;28;20171;-50
2023/08/24 11:36:46;;;;;;;6.07;4.10;;;23.10;99.90;;;;;;5053511;28;20183;-51
2023/08/24 11:39:19;;;;;;;4.95;4.43;;;23.10;99.90;;;;;;5053470;28;20642;-53
2023/08/24 11:41:58;;;;;;;6.78;4.28;;;23.10;99.90;;;;;;5053282;28;20721;-52
2023/08/24 11:44:23;;;;;;;6.45;3.97;;;23.00;99.90;;;;;;5053537;28;20171;-52
2023/08/24 11:46:49;;;;;;;6.32;4.13;;;22.90;99.90;;;;;;5053411;28;20178;-52
2023/08/24 11:49:15;;;;;;;6.05;3.75;;;22.90;99.90;;;;;;5053306;28;20238;-53
2023/08/24 11:51:41;;;;;;;6.10;3.80;;;22.80;99.90;;;;;;5052123;28;20213;-49
2023/08/24 11:54:08;;;;;;;4.93;3.67;;;22.70;99.90;;;;;;5053359;28;20642;-53
2023/08/24 11:56:40;;;;;;;4.75;3.97;;;22.80;99.90;;;;;;5053043;28;20258;-51
2023/08/24 11:59:10;;;;;;;3.20;2.90;;;22.80;99.90;;;;;;5053185;28;20175;-52
2023/08/24 12:01:36;;;;;;;4.85;3.63;;;22.80;99.90;;;;;;5053443;28;20199;-52
2023/08/24 12:04:02;;;;;;;3.85;3.45;;;22.90;99.90;;;;;;5053206;28;20209;-53
2023/08/24 12:06:28;;;;;;;4.15;3.30;;;22.80;99.90;;;;;;5053149;28;20636;-52
2023/08/24 12:08:55;;;;;;;6.65;3.60;;;22.70;99.90;;;;;;5052914;28;20237;-52
2023/08/24 12:11:25;;;;;;;6.35;3.45;;;22.70;99.90;;;;;;5053041;28;20282;-53
2023/08/24 12:13:52;;;;;;;4.00;3.60;;;22.70;99.90;;;;;;5053226;28;20202;-52
2023/08/24 12:16:20;;;;;;;3.97;3.10;;;22.70;99.90;;;;;;5053172;28;20194;-54
2023/08/24 12:18:54;;;;;;;3.83;3.08;;;22.70;99.90;;;;;;5052888;28;20190;-53
2023/08/24 12:21:21;;;;;;;3.95;2.97;;;22.80;99.90;;;;;;5053026;28;20640;-48
2023/08/24 12:23:56;;;;;;;5.80;3.55;;;22.70;99.90;;;;;;5052910;28;20258;-51
2023/08/24 12:26:22;;;;;;;4.78;3.20;;;22.70;99.90;;;;;;5053047;28;20159;-51
2023/08/24 12:28:52;;;;;;;4.75;3.30;;;22.80;99.90;;;;;;5052791;28;20217;-53
2023/08/24 12:31:19;;;;;;;4.57;3.15;;;22.70;99.90;;;;;;5052741;28;20624;-53
2023/08/24 12:33:45;;;;;;;4.80;3.50;;;22.70;99.90;;;;;;5052747;28;20692;-52
2023/08/24 12:36:11;;;;;;;6.45;3.53;;;22.70;99.90;;;;;;5055955;28;20535;-50
2023/08/24 12:38:36;;;;;;;3.92;2.92;;;22.70;99.90;;;;;;5057208;28;20178;-53
2023/08/24 12:41:02;;;;;;;3.60;3.08;;;22.70;99.90;;;;;;5056815;28;20178;-52
2023/08/24 12:43:28;;;;;;;5.75;3.22;;;22.70;99.90;;;;;;5056181;28;20679;-49